createdAt,value
2023-12-22T00:02:22.620Z,8.67
2023-12-22T00:04:49.443Z,8.61
2023-12-22T00:07:16.326Z,8.60
2023-12-22T00:09:43.021Z,8.63
2023-12-22T00:12:09.733Z,8.63
2023-12-22T00:14:36.491Z,8.62
2023-12-22T00:17:03.198Z,8.61
2023-12-22T00:19:30.114Z,8.65
2023-12-22T00:21:56.959Z,8.66
2023-12-22T00:24:23.657Z,8.65
2023-12-22T00:26:50.320Z,8.63
2023-12-22T00:29:19.184Z,8.65
2023-12-22T00:31:47.319Z,8.66
2023-12-22T00:34:14.276Z,8.60
2023-12-22T00:36:40.941Z,8.61
2023-12-22T00:39:08.811Z,8.60
2023-12-22T00:41:35.514Z,8.59
2023-12-22T00:44:02.244Z,8.57
2023-12-22T00:46:29.014Z,8.58
2023-12-22T00:48:55.788Z,8.56
2023-12-22T00:51:22.427Z,8.56
2023-12-22T00:53:49.112Z,8.54
2023-12-22T00:56:15.800Z,8.56
2023-12-22T00:58:43.228Z,8.58
2023-12-22T01:01:11.269Z,8.56
2023-12-22T01:03:37.994Z,8.55
2023-12-22T01:06:04.877Z,8.53
2023-12-22T01:08:31.754Z,8.53
2023-12-22T01:10:58.472Z,8.55
2023-12-22T01:13:25.198Z,8.54
2023-12-22T01:15:52.340Z,8.56
2023-12-22T01:18:19.079Z,8.55
2023-12-22T01:20:45.780Z,8.55
2023-12-22T01:23:12.546Z,8.58
2023-12-22T01:25:39.238Z,8.57
2023-12-22T01:28:06.422Z,8.59
2023-12-22T01:30:33.296Z,8.59
2023-12-22T01:33:00.108Z,8.55
2023-12-22T01:35:26.877Z,8.56
2023-12-22T01:37:53.683Z,8.54
2023-12-22T01:40:20.609Z,8.54
2023-12-22T01:42:48.701Z,8.54
2023-12-22T01:45:15.645Z,8.54
2023-12-22T01:47:43.415Z,8.55
2023-12-22T01:50:12.688Z,8.50
2023-12-22T01:52:42.466Z,8.46
2023-12-22T01:55:13.374Z,8.46
2023-12-22T01:57:42.236Z,8.42
2023-12-22T02:00:10.558Z,8.42
2023-12-22T02:02:39.444Z,8.39
2023-12-22T02:05:10.498Z,8.37
2023-12-22T02:07:37.386Z,8.35
2023-12-22T02:10:04.881Z,8.33
2023-12-22T02:12:31.585Z,8.31
2023-12-22T02:14:58.277Z,8.33
2023-12-22T02:17:34.011Z,8.29
2023-12-22T02:20:02.416Z,8.27
2023-12-22T02:22:32.419Z,8.27
2023-12-22T02:24:59.149Z,8.27
2023-12-22T02:27:50.199Z,8.26
2023-12-22T02:30:41.822Z,8.26
2023-12-22T02:33:10.282Z,8.30
2023-12-22T02:35:38.901Z,8.29
2023-12-22T02:38:08.038Z,8.27
2023-12-22T02:40:35.925Z,8.23
2023-12-22T02:43:04.104Z,8.23
2023-12-22T02:45:31.592Z,8.18
2023-12-22T02:47:58.361Z,8.18
2023-12-22T02:50:25.287Z,8.16
2023-12-22T02:52:52.089Z,8.12
2023-12-22T02:55:18.979Z,8.13
2023-12-22T02:57:45.999Z,8.10
2023-12-22T03:00:13.194Z,8.12
2023-12-22T03:02:39.875Z,8.08
2023-12-22T03:05:07.165Z,8.04
2023-12-22T03:07:34.031Z,8.06
2023-12-22T03:10:00.741Z,8.05
2023-12-22T03:12:27.439Z,8.03
2023-12-22T03:14:54.049Z,8.03
2023-12-22T03:17:20.691Z,7.99
2023-12-22T03:19:47.461Z,7.96
2023-12-22T03:22:14.154Z,7.92
2023-12-22T03:24:40.937Z,7.92
2023-12-22T03:27:08.077Z,7.91
2023-12-22T03:29:34.826Z,7.89
2023-12-22T03:32:01.530Z,7.87
2023-12-22T03:34:28.289Z,7.86
2023-12-22T03:36:54.973Z,7.86
2023-12-22T03:39:21.660Z,7.85
2023-12-22T03:41:48.291Z,7.84
2023-12-22T03:44:15.001Z,7.84
2023-12-22T03:46:41.759Z,7.82
2023-12-22T03:49:08.605Z,7.80
2023-12-22T03:51:35.289Z,7.80
2023-12-22T03:54:02.007Z,7.81
2023-12-22T03:56:28.652Z,7.78
2023-12-22T03:58:56.977Z,7.80
2023-12-22T04:01:23.772Z,7.80
2023-12-22T04:03:50.485Z,7.78
2023-12-22T04:06:17.192Z,7.73
2023-12-22T04:08:43.905Z,7.73
2023-12-22T04:11:10.589Z,7.72
2023-12-22T04:13:37.261Z,7.69
2023-12-22T04:16:06.396Z,7.69
2023-12-22T04:18:33.555Z,7.70
2023-12-22T04:21:00.403Z,7.72
2023-12-22T04:23:27.120Z,7.68
2023-12-22T04:25:54.034Z,7.70
2023-12-22T04:28:20.850Z,7.65
2023-12-22T04:30:47.541Z,7.66
2023-12-22T04:33:14.220Z,7.66
2023-12-22T04:35:40.855Z,7.70
2023-12-22T04:38:07.548Z,7.74
2023-12-22T04:40:34.319Z,7.78
2023-12-22T04:43:01.100Z,7.75
2023-12-22T04:45:27.863Z,7.76
2023-12-22T04:47:54.865Z,7.75
2023-12-22T04:50:21.689Z,7.77
2023-12-22T04:52:48.506Z,7.75
2023-12-22T04:55:16.701Z,7.76
2023-12-22T04:57:43.478Z,7.73
2023-12-22T05:00:10.517Z,7.73
2023-12-22T05:02:37.271Z,7.80
2023-12-22T05:05:04.689Z,7.76
2023-12-22T05:07:31.653Z,7.76
2023-12-22T05:09:58.377Z,7.76
2023-12-22T05:12:25.019Z,7.76
2023-12-22T05:14:51.729Z,7.73
2023-12-22T05:17:18.313Z,7.77
2023-12-22T05:19:45.005Z,7.77
2023-12-22T05:22:11.657Z,7.75
2023-12-22T05:24:39.373Z,7.75
2023-12-22T05:27:06.116Z,7.75
2023-12-22T05:29:32.736Z,7.76
2023-12-22T05:31:59.425Z,7.76
2023-12-22T05:34:26.160Z,7.71
2023-12-22T05:36:52.937Z,7.71
2023-12-22T05:39:19.670Z,7.71
2023-12-22T05:41:46.370Z,7.68
2023-12-22T05:44:13.112Z,7.64
2023-12-22T05:46:40.154Z,7.63
2023-12-22T05:49:07.081Z,7.62
2023-12-22T05:51:42.877Z,7.58
2023-12-22T05:54:10.069Z,7.54
2023-12-22T05:56:36.707Z,7.54
2023-12-22T05:59:04.701Z,7.55
2023-12-22T06:01:31.626Z,7.54
2023-12-22T06:03:58.420Z,7.57
2023-12-22T06:06:25.258Z,7.57
2023-12-22T06:08:52.094Z,7.54
2023-12-22T06:11:18.792Z,7.55
2023-12-22T06:13:45.706Z,7.58
2023-12-22T06:16:16.142Z,7.57
2023-12-22T06:18:43.229Z,7.61
2023-12-22T06:21:11.603Z,7.57
2023-12-22T06:23:38.704Z,7.57
2023-12-22T06:26:12.453Z,7.55
2023-12-22T06:28:41.117Z,7.56
2023-12-22T06:31:09.246Z,7.58
2023-12-22T06:33:36.105Z,7.62
2023-12-22T06:36:03.351Z,7.61
2023-12-22T06:38:30.165Z,7.57
2023-12-22T06:40:57.093Z,7.57
2023-12-22T06:43:23.974Z,7.60
2023-12-22T06:45:50.824Z,7.60
2023-12-22T06:48:17.734Z,7.62
2023-12-22T06:50:46.553Z,7.61
2023-12-22T06:53:21.883Z,7.57
2023-12-22T06:55:52.837Z,7.58
2023-12-22T06:58:22.687Z,7.60
2023-12-22T07:00:49.929Z,7.91
2023-12-22T07:03:17.969Z,8.22
2023-12-22T07:05:45.777Z,8.32
2023-12-22T07:08:13.024Z,8.30
2023-12-22T07:10:40.044Z,8.27
2023-12-22T07:13:07.858Z,8.23
2023-12-22T07:15:34.657Z,8.24
2023-12-22T07:18:02.820Z,8.22
2023-12-22T07:20:30.224Z,8.24
2023-12-22T07:22:57.968Z,8.23
2023-12-22T07:25:25.061Z,8.21
2023-12-22T07:27:53.207Z,8.21
2023-12-22T07:30:21.344Z,8.22
2023-12-22T07:32:53.653Z,8.23
2023-12-22T07:35:20.818Z,8.20
2023-12-22T07:37:47.960Z,8.15
2023-12-22T07:40:16.509Z,8.14
2023-12-22T07:42:44.438Z,8.14
2023-12-22T07:45:11.152Z,8.10
2023-12-22T07:47:38.640Z,8.10
2023-12-22T07:50:11.873Z,8.10
2023-12-22T07:52:41.269Z,8.13
2023-12-22T07:55:12.629Z,8.11
2023-12-22T07:57:39.913Z,8.10
2023-12-22T08:00:07.655Z,8.13
2023-12-22T08:02:34.298Z,8.11
2023-12-22T08:05:01.292Z,8.15
2023-12-22T08:07:28.137Z,8.12
2023-12-22T08:09:54.954Z,8.12
2023-12-22T08:12:21.748Z,8.13
2023-12-22T08:14:48.714Z,8.13
2023-12-22T08:17:15.464Z,8.14
2023-12-22T08:19:46.246Z,8.13
2023-12-22T08:22:15.025Z,8.11
2023-12-22T08:24:42.983Z,8.12
2023-12-22T08:27:10.393Z,8.13
2023-12-22T08:29:37.141Z,8.11
2023-12-22T08:32:04.152Z,8.10
2023-12-22T08:34:30.900Z,8.11
2023-12-22T08:36:57.723Z,8.10
2023-12-22T08:39:26.005Z,8.12
2023-12-22T08:41:53.205Z,8.11
2023-12-22T08:44:20.712Z,8.12
2023-12-22T08:46:47.682Z,8.13
2023-12-22T08:49:14.565Z,8.12
2023-12-22T08:51:42.419Z,8.15
2023-12-22T08:54:09.193Z,8.12
2023-12-22T08:56:36.815Z,8.15
2023-12-22T08:59:03.945Z,8.17
2023-12-22T09:01:30.800Z,8.13
2023-12-22T09:03:57.515Z,8.10
2023-12-22T09:06:26.402Z,8.43
2023-12-22T09:08:54.360Z,8.73
2023-12-22T09:11:23.045Z,8.67
2023-12-22T09:13:50.067Z,8.67
2023-12-22T09:16:22.959Z,8.67
2023-12-22T09:18:51.100Z,8.67
2023-12-22T09:21:18.602Z,8.66
2023-12-22T09:23:47.727Z,8.67
2023-12-22T09:26:15.458Z,8.68
2023-12-22T09:28:43.231Z,8.67
2023-12-22T09:31:10.893Z,8.62
2023-12-22T09:33:38.242Z,8.59
2023-12-22T09:36:05.600Z,8.57
2023-12-22T09:38:32.320Z,8.58
2023-12-22T09:40:59.926Z,8.60
2023-12-22T09:43:26.759Z,8.57
2023-12-22T09:45:54.347Z,8.59
2023-12-22T09:48:28.921Z,8.60
2023-12-22T09:50:59.547Z,8.60
2023-12-22T09:53:27.385Z,8.58
2023-12-22T09:55:55.622Z,8.60
2023-12-22T09:58:23.631Z,8.57
2023-12-22T10:00:52.460Z,8.53
2023-12-22T10:03:21.651Z,8.56
2023-12-22T10:05:48.881Z,8.56
2023-12-22T10:08:16.049Z,8.51
2023-12-22T10:10:44.584Z,8.55
2023-12-22T10:13:12.280Z,8.49
2023-12-22T10:15:42.948Z,8.49
2023-12-22T10:18:11.004Z,8.47
2023-12-22T10:20:37.998Z,8.47
2023-12-22T10:23:05.326Z,8.44
2023-12-22T10:25:32.922Z,8.41
2023-12-22T10:28:00.525Z,8.39
2023-12-22T10:30:29.274Z,8.39
2023-12-22T10:32:56.254Z,8.34
2023-12-22T10:35:23.874Z,8.37
2023-12-22T10:37:55.109Z,8.37
2023-12-22T10:40:23.983Z,8.37
2023-12-22T10:42:52.187Z,8.40
2023-12-22T10:45:23.027Z,8.39
2023-12-22T10:47:52.915Z,8.37
2023-12-22T10:50:25.938Z,8.34
2023-12-22T10:52:53.111Z,8.38
2023-12-22T10:55:20.563Z,8.40
2023-12-22T10:57:48.449Z,8.42
2023-12-22T11:00:21.671Z,8.44
2023-12-22T11:02:52.131Z,8.45
2023-12-22T11:05:21.751Z,8.50
2023-12-22T11:07:50.722Z,8.56
2023-12-22T11:10:21.591Z,8.56
2023-12-22T11:12:48.750Z,8.60
2023-12-22T11:15:16.318Z,8.61
2023-12-22T11:17:44.005Z,8.68
2023-12-22T11:20:12.064Z,8.75
2023-12-22T11:22:40.290Z,8.77
2023-12-22T11:25:09.394Z,8.81
2023-12-22T11:27:38.433Z,8.82
2023-12-22T11:30:09.827Z,8.85
2023-12-22T11:32:37.503Z,8.88
2023-12-22T11:35:06.538Z,8.90
2023-12-22T11:37:34.892Z,8.93
2023-12-22T11:40:02.160Z,8.95
2023-12-22T11:42:39.675Z,8.90
2023-12-22T11:45:06.840Z,8.85
2023-12-22T11:47:35.861Z,8.80
2023-12-22T11:50:02.809Z,8.77
2023-12-22T11:52:29.808Z,8.74
2023-12-22T11:54:57.628Z,8.70
2023-12-22T11:57:33.630Z,8.67
2023-12-22T12:00:08.002Z,8.59
2023-12-22T12:02:41.615Z,8.53
2023-12-22T12:05:10.505Z,8.47
2023-12-22T12:07:49.943Z,8.44
2023-12-22T12:10:35.191Z,8.47
2023-12-22T12:13:12.244Z,8.43
2023-12-22T12:15:39.997Z,8.38
2023-12-22T12:18:07.398Z,8.32
2023-12-22T12:20:35.065Z,8.27
2023-12-22T12:23:04.903Z,8.23
2023-12-22T12:25:36.716Z,8.17
2023-12-22T12:28:05.254Z,8.17
2023-12-22T12:30:32.788Z,8.11
2023-12-22T12:33:10.135Z,8.13
2023-12-22T12:35:42.704Z,8.17
2023-12-22T12:38:12.487Z,8.21
2023-12-22T12:40:41.918Z,8.21
2023-12-22T12:43:09.041Z,8.18
2023-12-22T12:45:35.761Z,8.17
2023-12-22T12:48:06.038Z,8.17
2023-12-22T12:50:34.933Z,8.12
2023-12-22T12:53:02.038Z,8.09
2023-12-22T12:55:29.409Z,8.07
2023-12-22T12:57:57.578Z,8.03
2023-12-22T13:00:37.054Z,8.06
2023-12-22T13:03:06.634Z,8.10
2023-12-22T13:05:35.650Z,8.11
2023-12-22T13:08:11.827Z,8.13
2023-12-22T13:10:39.072Z,8.13
2023-12-22T13:13:06.351Z,8.15
2023-12-22T13:15:33.753Z,8.18
2023-12-22T13:18:00.590Z,8.19
2023-12-22T13:20:28.610Z,8.15
2023-12-22T13:22:56.126Z,8.15
2023-12-22T13:25:24.566Z,8.18
2023-12-22T13:27:53.341Z,8.22
2023-12-22T13:30:37.677Z,8.24
2023-12-22T13:33:04.848Z,8.26
2023-12-22T13:35:32.275Z,8.30
2023-12-22T13:37:59.994Z,8.26
2023-12-22T13:40:26.885Z,8.24
2023-12-22T13:42:58.717Z,8.19
2023-12-22T13:45:26.896Z,8.17
2023-12-22T13:47:54.061Z,8.14
2023-12-22T13:50:24.701Z,8.13
2023-12-22T13:52:52.613Z,8.09
2023-12-22T13:55:24.262Z,8.07
2023-12-22T13:58:01.481Z,8.02
2023-12-22T14:00:30.493Z,7.98
2023-12-22T14:02:57.646Z,7.98
2023-12-22T14:05:24.628Z,7.98
2023-12-22T14:07:51.930Z,8.23
2023-12-22T14:10:18.988Z,8.70
2023-12-22T14:12:45.828Z,9.05
2023-12-22T14:15:13.200Z,9.40
2023-12-22T14:17:40.619Z,9.69
2023-12-22T14:20:11.252Z,10.03
2023-12-22T14:22:39.017Z,10.34
2023-12-22T14:25:06.829Z,10.64
2023-12-22T14:27:33.960Z,10.92
2023-12-22T14:30:00.809Z,11.17
2023-12-22T14:32:27.525Z,11.43
2023-12-22T14:34:54.368Z,11.69
2023-12-22T14:37:21.548Z,11.85
2023-12-22T14:39:49.105Z,11.72
2023-12-22T14:42:16.007Z,11.56
2023-12-22T14:44:42.841Z,11.39
2023-12-22T14:47:12.111Z,11.21
2023-12-22T14:49:41.068Z,11.06
2023-12-22T14:52:07.994Z,10.92
2023-12-22T14:54:34.694Z,10.79
2023-12-22T14:57:01.847Z,10.64
2023-12-22T14:59:29.298Z,10.53
2023-12-22T15:01:56.134Z,10.42
2023-12-22T15:04:22.998Z,10.27
2023-12-22T15:06:52.463Z,10.19
2023-12-22T15:09:27.312Z,10.04
2023-12-22T15:11:55.855Z,9.95
2023-12-22T15:14:23.332Z,9.84
2023-12-22T15:16:52.323Z,9.80
2023-12-22T15:19:19.407Z,9.80
2023-12-22T15:21:46.227Z,9.80
2023-12-22T15:24:12.853Z,9.72
2023-12-22T15:26:39.484Z,9.80
2023-12-22T15:29:06.580Z,9.80
2023-12-22T15:31:37.129Z,9.82
2023-12-22T15:34:06.150Z,9.76
2023-12-22T15:36:33.275Z,9.72
2023-12-22T15:39:00.258Z,9.65
2023-12-22T15:41:32.989Z,9.55
2023-12-22T15:44:00.874Z,9.43
2023-12-22T15:46:27.900Z,9.35
2023-12-22T15:48:54.732Z,9.28
2023-12-22T15:51:21.636Z,9.17
2023-12-22T15:53:48.711Z,9.09
2023-12-22T15:56:17.336Z,9.03
2023-12-22T15:58:45.679Z,8.97
2023-12-22T16:01:16.179Z,8.88
2023-12-22T16:03:49.040Z,8.81
2023-12-22T16:06:16.270Z,8.71
2023-12-22T16:08:43.193Z,8.67
2023-12-22T16:11:09.949Z,8.66
2023-12-22T16:13:36.699Z,8.59
2023-12-22T16:16:03.716Z,8.54
2023-12-22T16:18:31.127Z,8.47
2023-12-22T16:20:57.994Z,8.41
2023-12-22T16:23:24.954Z,8.35
2023-12-22T16:25:53.285Z,8.33
2023-12-22T16:28:20.443Z,8.24
2023-12-22T16:30:50.660Z,8.23
2023-12-22T16:33:17.999Z,8.19
2023-12-22T16:35:44.921Z,8.19
2023-12-22T16:38:11.952Z,8.18
2023-12-22T16:40:39.462Z,8.15
2023-12-22T16:43:06.727Z,8.14
2023-12-22T16:45:33.788Z,8.13
2023-12-22T16:48:02.263Z,8.13
2023-12-22T16:50:29.610Z,8.12
2023-12-22T16:52:57.033Z,8.12
2023-12-22T16:55:24.012Z,8.16
2023-12-22T16:57:51.417Z,8.17
2023-12-22T17:00:21.199Z,8.17
2023-12-22T17:02:49.262Z,8.19
2023-12-22T17:05:17.052Z,8.16
2023-12-22T17:07:46.672Z,8.11
2023-12-22T17:10:14.494Z,8.10
2023-12-22T17:12:41.445Z,8.11
2023-12-22T17:15:10.276Z,8.11
2023-12-22T17:17:37.386Z,8.12
2023-12-22T17:20:05.040Z,8.13
2023-12-22T17:22:32.262Z,8.12
2023-12-22T17:24:59.179Z,8.12
2023-12-22T17:27:25.778Z,8.05
2023-12-22T17:29:52.487Z,7.98
2023-12-22T17:32:19.370Z,7.93
2023-12-22T17:34:46.292Z,7.90
2023-12-22T17:37:13.203Z,7.88
2023-12-22T17:39:40.006Z,7.86
2023-12-22T17:42:06.765Z,7.81
2023-12-22T17:44:33.536Z,7.76
2023-12-22T17:47:04.777Z,7.76
2023-12-22T17:49:33.402Z,7.70
2023-12-22T17:52:00.465Z,7.71
2023-12-22T17:54:27.156Z,7.68
2023-12-22T17:56:54.210Z,7.66
2023-12-22T17:59:21.451Z,7.65
2023-12-22T18:01:51.312Z,7.62
2023-12-22T18:04:18.292Z,7.57
2023-12-22T18:06:45.172Z,7.54
2023-12-22T18:09:12.211Z,7.59
2023-12-22T18:11:42.920Z,7.62
2023-12-22T18:14:10.654Z,7.63
2023-12-22T18:16:44.348Z,7.68
2023-12-22T18:19:12.361Z,7.84
2023-12-22T18:21:39.382Z,7.90
2023-12-22T18:24:06.674Z,7.93
2023-12-22T18:26:33.924Z,7.96
2023-12-22T18:29:00.881Z,8.00
2023-12-22T18:31:27.882Z,8.05
2023-12-22T18:33:56.026Z,8.07
2023-12-22T18:36:22.808Z,8.07
2023-12-22T18:38:49.517Z,8.06
2023-12-22T18:41:16.382Z,8.10
2023-12-22T18:43:43.061Z,8.09
2023-12-22T18:46:10.113Z,8.10
2023-12-22T18:48:37.051Z,8.12
2023-12-22T18:51:04.132Z,8.12
2023-12-22T18:53:30.889Z,8.14
2023-12-22T18:55:58.369Z,8.32
2023-12-22T18:58:25.643Z,8.34
2023-12-22T19:00:52.575Z,8.36
2023-12-22T19:03:19.376Z,8.38
2023-12-22T19:05:46.250Z,8.36
2023-12-22T19:08:13.055Z,8.38
2023-12-22T19:10:39.855Z,8.37
2023-12-22T19:13:06.549Z,8.35
2023-12-22T19:15:33.698Z,8.32
2023-12-22T19:18:00.811Z,8.33
2023-12-22T19:20:27.821Z,8.35
2023-12-22T19:22:54.880Z,8.29
2023-12-22T19:25:22.084Z,8.26
2023-12-22T19:27:49.586Z,8.19
2023-12-22T19:30:17.380Z,8.16
2023-12-22T19:32:46.672Z,8.13
2023-12-22T19:35:14.023Z,8.09
2023-12-22T19:37:40.995Z,8.02
2023-12-22T19:40:08.591Z,8.00
2023-12-22T19:42:35.468Z,7.96
2023-12-22T19:45:03.006Z,7.94
2023-12-22T19:47:29.816Z,7.93
2023-12-22T19:49:57.028Z,7.87
2023-12-22T19:52:24.060Z,7.83
2023-12-22T19:54:50.847Z,7.82
2023-12-22T19:57:17.517Z,7.78
2023-12-22T19:59:44.216Z,7.76
2023-12-22T20:02:11.022Z,7.73
2023-12-22T20:04:37.772Z,7.71
2023-12-22T20:07:04.728Z,7.71
2023-12-22T20:09:31.730Z,7.71
2023-12-22T20:11:58.615Z,7.73
2023-12-22T20:14:26.575Z,7.72
2023-12-22T20:16:54.287Z,7.71
2023-12-22T20:19:21.616Z,7.69
2023-12-22T20:21:48.561Z,7.62
2023-12-22T20:24:15.626Z,7.59
2023-12-22T20:26:42.389Z,7.60
2023-12-22T20:29:10.036Z,7.57
2023-12-22T20:31:38.514Z,7.56
2023-12-22T20:34:05.846Z,7.52
2023-12-22T20:36:32.731Z,7.49
2023-12-22T20:38:59.525Z,7.44
2023-12-22T20:41:26.459Z,7.45
2023-12-22T20:43:53.465Z,7.45
2023-12-22T20:46:20.421Z,7.46
2023-12-22T20:48:47.554Z,7.51
2023-12-22T20:51:14.811Z,7.53
2023-12-22T20:53:41.516Z,7.47
2023-12-22T20:56:18.849Z,7.48
2023-12-22T20:58:45.716Z,7.45
2023-12-22T21:01:13.072Z,7.51
2023-12-22T21:03:39.780Z,7.48
2023-12-22T21:06:07.586Z,7.46
2023-12-22T21:08:35.010Z,7.44
2023-12-22T21:11:04.770Z,7.45
2023-12-22T21:13:32.387Z,7.45
2023-12-22T21:15:59.183Z,7.45
2023-12-22T21:18:26.106Z,7.45
2023-12-22T21:20:52.822Z,7.46
2023-12-22T21:23:20.540Z,7.42
2023-12-22T21:25:48.077Z,7.39
2023-12-22T21:28:15.582Z,7.39
2023-12-22T21:30:42.722Z,7.35
2023-12-22T21:33:11.303Z,7.37
2023-12-22T21:35:38.093Z,7.35
2023-12-22T21:38:05.153Z,7.38
2023-12-22T21:40:32.531Z,7.41
2023-12-22T21:42:59.258Z,7.38
2023-12-22T21:45:26.047Z,7.37
2023-12-22T21:47:53.340Z,7.33
2023-12-22T21:50:21.053Z,7.32
2023-12-22T21:52:48.067Z,7.38
2023-12-22T21:55:15.066Z,7.34
2023-12-22T21:57:43.615Z,7.35
2023-12-22T22:00:13.667Z,7.35
2023-12-22T22:02:40.773Z,7.33
2023-12-22T22:05:07.587Z,7.33
2023-12-22T22:07:34.404Z,7.33
2023-12-22T22:10:01.249Z,7.34
2023-12-22T22:12:28.388Z,7.34
2023-12-22T22:14:55.119Z,7.37
2023-12-22T22:17:21.919Z,7.36
2023-12-22T22:19:48.883Z,7.35
2023-12-22T22:22:15.762Z,7.36
2023-12-22T22:24:42.540Z,7.36
2023-12-22T22:27:09.522Z,7.37
2023-12-22T22:29:36.180Z,7.40
2023-12-22T22:32:03.489Z,7.37
2023-12-22T22:34:33.816Z,7.38
2023-12-22T22:37:00.595Z,7.37
2023-12-22T22:39:28.678Z,7.36
2023-12-22T22:41:56.043Z,7.35
2023-12-22T22:44:23.005Z,7.37
2023-12-22T22:46:49.831Z,7.37
2023-12-22T22:49:16.621Z,7.38
2023-12-22T22:51:44.460Z,7.37
2023-12-22T22:54:11.278Z,7.35
2023-12-22T22:56:45.810Z,7.35
2023-12-22T22:59:12.626Z,7.36
2023-12-22T23:01:39.402Z,7.34
2023-12-22T23:04:06.121Z,7.33
2023-12-22T23:06:32.903Z,7.34
2023-12-22T23:09:03.676Z,7.34
2023-12-22T23:11:30.380Z,7.36
2023-12-22T23:13:57.290Z,7.36
2023-12-22T23:16:23.944Z,7.35
2023-12-22T23:18:51.043Z,7.33
2023-12-22T23:21:17.801Z,7.33
2023-12-22T23:23:44.489Z,7.33
2023-12-22T23:26:11.580Z,7.30
2023-12-22T23:28:38.794Z,7.30
2023-12-22T23:31:05.478Z,7.26
2023-12-22T23:33:32.498Z,7.30
2023-12-22T23:36:06.521Z,7.29
2023-12-22T23:38:40.744Z,7.31
2023-12-22T23:41:09.772Z,7.30
2023-12-22T23:43:36.608Z,7.29
2023-12-22T23:46:04.049Z,7.24
2023-12-22T23:48:30.920Z,7.21
2023-12-22T23:51:01.507Z,7.20
2023-12-22T23:53:28.236Z,7.18
2023-12-22T23:55:55.047Z,7.18
2023-12-22T23:58:21.737Z,7.17
